Time;durP1;ratioP1;P1;durP2;ratioP2;P2;SDS_P1;SDS_P2;PMS_P1;PMS_P2;Temp;Humidity;BMP_temperature;BMP_pressure;BME280_temperature;BME280_humidity;BME280_pressure;Samples;Min_cycle;Max_cycle;Signal;HPM_P1;HPM_P2
2022/04/19 00:02:21;;;;;;;12.45;3.28;;;;;;;7.80;56.71;100199.53;18433598;32;20085;-66
2022/04/19 00:12:24;;;;;;;7.28;3.05;;;;;;;7.66;57.42;100186.44;18433266;32;20123;-66
2022/04/19 00:22:29;;;;;;;7.35;3.22;;;;;;;7.30;58.78;100185.31;18432972;32;20142;-66
2022/04/19 00:32:32;;;;;;;9.15;3.62;;;;;;;7.06;58.66;100172.16;18432904;32;20140;-65
2022/04/19 00:42:37;;;;;;;9.40;4.05;;;;;;;7.03;59.04;100156.56;18432539;32;20101;-65
2022/04/19 00:52:40;;;;;;;7.68;3.97;;;;;;;6.84;59.97;100154.66;18432107;32;20457;-66
2022/04/19 01:02:45;;;;;;;7.62;3.53;;;;;;;6.65;60.41;100144.12;18418591;32;20440;-66
2022/04/19 01:23:11;;;;;;;8.23;3.42;;;;;;;6.38;60.58;100125.69;18430505;32;20183;-65
2022/04/19 01:33:15;;;;;;;11.30;3.30;;;;;;;6.14;61.79;100136.66;18430941;32;20093;-66
2022/04/19 01:43:20;;;;;;;7.68;3.40;;;;;;;5.96;61.37;100130.34;18430016;32;20093;-65
2022/04/19 01:53:23;;;;;;;7.35;2.83;;;;;;;5.69;61.79;100120.53;18429458;32;20183;-66
2022/04/19 02:03:27;;;;;;;6.85;3.25;;;;;;;6.09;61.36;100123.62;18428845;32;20134;-65
2022/04/19 02:13:31;;;;;;;5.20;3.17;;;;;;;5.63;61.69;100116.13;18428014;32;20105;-65
2022/04/19 02:23:36;;;;;;;6.45;3.25;;;;;;;5.64;62.64;100112.69;18433573;32;20151;-66
2022/04/19 02:33:39;;;;;;;8.88;3.58;;;;;;;5.55;63.43;100107.38;18436504;32;20107;-65
2022/04/19 02:43:44;;;;;;;5.78;3.17;;;;;;;5.66;63.60;100110.97;18435818;32;20101;-66
2022/04/19 02:53:47;;;;;;;7.68;3.47;;;;;;;5.54;63.66;100110.81;18435445;32;20096;-66
2022/04/19 03:03:52;;;;;;;8.68;3.60;;;;;;;5.64;65.25;100104.91;18434845;32;20495;-65
2022/04/19 03:13:55;;;;;;;10.07;4.60;;;;;;;5.82;64.92;100106.88;18436108;32;20132;-65
2022/04/19 03:34:18;;;;;;;10.45;4.07;;;;;;;6.37;62.99;100091.97;18296068;32;20136;-65
2022/04/19 03:44:25;;;;;;;9.98;3.90;;;;;;;6.15;63.49;100081.34;18296332;32;20207;-65
2022/04/19 03:54:28;;;;;;;7.50;3.60;;;;;;;6.42;63.15;100072.13;18295879;32;20625;-65
2022/04/19 04:04:35;;;;;;;7.22;3.80;;;;;;;6.24;63.37;100078.88;18308831;32;20183;-66
2022/04/19 04:14:38;;;;;;;9.50;4.18;;;;;;;6.16;64.04;100080.50;18369268;32;20120;-65
2022/04/19 04:24:43;;;;;;;8.80;4.30;;;;;;;6.34;62.92;100084.16;18368977;32;20108;-65
2022/04/19 04:34:46;;;;;;;8.77;4.50;;;;;;;6.23;63.64;100090.09;18366418;32;20109;-66
2022/04/19 04:44:51;;;;;;;10.98;4.55;;;;;;;6.09;64.92;100104.63;18367067;32;20102;-66
2022/04/19 04:54:54;;;;;;;8.50;4.50;;;;;;;6.42;62.77;100102.41;18397074;32;20107;-66
2022/04/19 05:04:58;;;;;;;7.95;3.83;;;;;;;6.82;61.87;100107.94;18431918;32;20144;-66
2022/04/19 05:15:02;;;;;;;7.93;3.87;;;;;;;6.84;60.42;100101.03;18431087;32;20130;-66
2022/04/19 05:25:07;;;;;;;10.80;3.83;;;;;;;6.86;60.27;100108.84;18431692;32;20445;-66
2022/04/19 05:35:10;;;;;;;9.25;4.05;;;;;;;7.24;58.93;100104.78;18430465;32;20109;-67
2022/04/19 05:45:15;;;;;;;7.95;3.85;;;;;;;7.27;58.66;100110.00;18429314;32;20097;-66
2022/04/19 05:55:18;;;;;;;6.78;3.20;;;;;;;8.67;54.70;100102.75;18429868;32;20085;-66
2022/04/19 06:05:23;;;;;;;7.12;3.37;;;;;;;9.02;52.17;100094.97;18420387;32;20115;-66
2022/04/19 06:15:26;;;;;;;7.85;3.17;;;;;;;10.15;49.74;100090.25;18435780;32;20358;-67
2022/04/19 06:25:30;;;;;;;7.78;3.03;;;;;;;12.28;44.56;100088.25;18434461;32;20370;-68
2022/04/19 06:35:34;;;;;;;6.40;2.90;;;;;;;14.94;37.05;100074.37;18435389;32;20744;-67
2022/04/19 06:45:39;;;;;;;7.28;3.30;;;;;;;15.42;33.54;100064.34;18432676;32;20116;-67
2022/04/19 06:55:42;;;;;;;5.22;2.33;;;;;;;15.63;31.39;100082.16;18432647;32;20115;-67
2022/04/19 07:05:47;;;;;;;6.18;2.83;;;;;;;15.47;30.53;100080.87;18411119;32;20101;-67
2022/04/19 07:15:50;;;;;;;5.00;2.20;;;;;;;15.27;29.95;100074.41;18428927;32;20107;-68
2022/04/19 07:36:16;;;;;;;4.32;2.20;;;;;;;18.08;26.71;100058.34;18355586;32;20163;-65
2022/04/19 07:46:22;;;;;;;4.97;2.60;;;;;;;16.37;28.85;100067.72;18355619;32;20074;-66
2022/04/19 07:56:30;;;;;;;6.18;2.58;;;;;;;15.14;30.71;100070.34;18362531;32;20382;-67
2022/04/19 08:06:35;;;;;;;6.22;2.28;;;;;;;13.30;33.62;100069.16;18369081;32;20077;-66
2022/04/19 08:16:38;;;;;;;4.95;2.10;;;;;;;14.32;33.61;100046.94;18368075;32;20148;-66
2022/04/19 08:26:43;;;;;;;5.32;2.40;;;;;;;14.21;32.13;100057.69;18369026;32;20455;-66
2022/04/19 08:36:46;;;;;;;6.50;2.67;;;;;;;13.94;33.52;100066.16;18369227;32;20115;-66
2022/04/19 08:46:51;;;;;;;6.10;2.50;;;;;;;13.67;33.46;100060.59;18368606;32;20151;-66
2022/04/19 09:07:17;;;;;;;7.87;2.80;;;;;;;13.00;34.04;100045.25;18367691;32;20108;-66
2022/04/19 09:17:30;;;;;;;6.12;2.83;;;;;;;14.37;32.86;100039.81;18354281;32;20444;-66
2022/04/19 09:27:34;;;;;;;5.07;3.12;;;;;;;14.86;30.27;100034.28;18366346;32;20107;-66
2022/04/19 09:37:38;;;;;;;5.62;2.33;;;;;;;14.97;29.86;100034.84;18366503;32;20372;-66
2022/04/19 09:47:51;;;;;;;7.87;2.55;;;;;;;13.76;33.56;100030.66;18365383;32;20450;-66
2022/04/19 09:57:55;;;;;;;5.55;2.10;;;;;;;12.87;36.36;100032.34;18350879;32;20594;-67
2022/04/19 10:08:14;;;;;;;6.12;2.67;;;;;;;11.82;36.64;100029.56;18364760;32;20101;-67
2022/04/19 10:18:17;;;;;;;6.03;2.60;;;;;;;13.06;35.94;100028.53;18350066;32;20125;-66
2022/04/19 10:28:30;;;;;;;6.00;2.78;;;;;;;13.86;34.66;100005.12;18363407;32;20137;-66
2022/04/19 10:38:33;;;;;;;4.70;2.60;;;;;;;12.96;35.44;100001.62;18363395;32;20093;-66
2022/04/19 10:49:20;;;;;;;6.12;3.08;;;;;;;12.88;34.90;100005.25;18371683;32;20694;-65
2022/04/19 10:59:23;;;;;;;5.75;2.70;;;;;;;12.83;34.52;100001.84;18371213;32;20100;-66
2022/04/19 11:09:29;;;;;;;4.75;2.17;;;;;;;12.87;34.19;100000.06;18386026;32;20115;-67
2022/04/19 11:19:34;;;;;;;7.93;3.35;;;;;;;13.41;33.81;100016.47;18418590;32;20093;-65
2022/04/19 11:29:48;;;;;;;5.47;3.05;;;;;;;12.30;39.25;100010.56;18433111;32;20077;-65
2022/04/19 11:50:28;;;;;;;7.62;3.58;;;;;;;11.63;47.91;100037.66;18418346;32;20088;-64
2022/04/19 12:00:31;;;;;;;6.95;3.50;;;;;;;10.89;49.59;100039.28;18433222;32;20087;-65
2022/04/19 12:10:36;;;;;;;7.43;3.67;;;;;;;10.74;51.05;100018.56;18429059;32;20417;-65
2022/04/19 12:20:43;;;;;;;8.32;3.83;;;;;;;10.51;57.12;100040.47;18410556;32;20101;-65
2022/04/19 12:30:48;;;;;;;5.47;3.00;;;;;;;9.88;60.07;100057.37;18418160;32;20171;-64
2022/04/19 12:40:52;;;;;;;7.47;4.22;;;;;;;9.34;61.08;100063.66;18417497;32;20408;-64
2022/04/19 12:51:03;;;;;;;9.90;4.65;;;;;;;9.10;64.18;100068.03;18416639;32;20124;-64
2022/04/19 13:01:06;;;;;;;13.40;7.90;;;;;;;9.64;63.11;100064.41;18431259;32;20461;-65
2022/04/19 13:21:31;;;;;;;8.83;5.10;;;;;;;10.31;63.67;100040.63;18431265;32;20085;-65
2022/04/19 13:31:42;;;;;;;10.38;4.90;;;;;;;11.03;58.07;100046.16;18416455;32;20223;-66
2022/04/19 13:41:46;;;;;;;7.57;3.40;;;;;;;11.55;56.47;100052.56;18430418;32;20142;-66
2022/04/19 13:51:50;;;;;;;9.88;5.05;;;;;;;11.98;54.80;100047.66;18416321;32;20500;-66
2022/04/19 14:01:54;;;;;;;7.00;4.32;;;;;;;11.98;51.81;100051.13;18429166;32;20377;-65
2022/04/19 14:11:58;;;;;;;7.53;3.50;;;;;;;12.35;48.38;100042.78;18427674;32;20088;-65
2022/04/19 14:22:02;;;;;;;10.70;5.18;;;;;;;12.20;47.89;100050.87;18419288;32;20137;-65
2022/04/19 14:42:30;;;;;;;;;;;;;;;12.29;47.44;100052.50;18434482;32;20425;-65
2022/04/19 14:52:34;;;;;;;6.50;3.47;;;;;;;12.06;50.76;100069.38;18434089;32;19964;-66
2022/04/19 15:02:40;;;;;;;8.57;3.90;;;;;;;11.24;52.25;100076.41;18419344;32;20460;-66
2022/04/19 15:12:44;;;;;;;6.95;3.85;;;;;;;11.67;53.24;100090.78;18432857;32;20107;-66
2022/04/19 15:22:48;;;;;;;7.85;3.97;;;;;;;10.85;58.92;100091.56;18435099;32;20115;-66
2022/04/19 15:32:52;;;;;;;5.75;3.30;;;;;;;10.13;60.40;100108.53;18433746;32;20156;-65
2022/04/19 15:42:56;;;;;;;5.55;3.12;;;;;;;9.87;62.00;100115.63;18433298;32;20100;-65
2022/04/19 15:53:01;;;;;;;6.53;3.20;;;;;;;9.96;58.23;100119.03;18417108;32;20111;-66
2022/04/19 16:03:04;;;;;;;7.97;3.42;;;;;;;9.86;61.32;100122.56;18433085;32;20092;-66
2022/04/19 16:13:12;;;;;;;7.43;3.03;;;;;;;8.77;61.49;100124.47;18432873;32;20108;-66
2022/04/19 16:23:24;;;;;;;6.32;3.37;;;;;;;8.24;61.18;100139.91;18432036;32;20120;-66
2022/04/19 16:33:29;;;;;;;6.53;2.87;;;;;;;8.66;61.04;100135.72;18430307;32;20096;-65
2022/04/19 16:43:33;;;;;;;8.10;3.30;;;;;;;8.85;61.72;100120.97;18414698;32;20125;-66
2022/04/19 16:53:38;;;;;;;7.80;3.15;;;;;;;8.85;60.05;100122.72;18432204;32;20108;-66
2022/04/19 17:04:00;;;;;;;7.70;3.72;;;;;;;8.70;60.15;100134.84;18432151;32;20101;-65
2022/04/19 17:14:07;;;;;;;9.18;4.47;;;;;;;8.52;61.44;100138.31;18415715;32;20105;-66
2022/04/19 17:24:10;;;;;;;9.55;4.40;;;;;;;8.63;62.02;100135.72;18430864;32;20089;-65
2022/04/19 17:34:15;;;;;;;8.55;3.55;;;;;;;8.75;63.08;100127.03;18430016;32;20101;-65
2022/04/19 17:44:21;;;;;;;7.65;3.67;;;;;;;8.28;64.53;100131.28;18430149;32;20100;-65
2022/04/19 18:04:56;;;;;;;13.25;5.82;;;;;;;7.78;66.24;100149.28;18431436;32;20093;-65
2022/04/19 18:15:00;;;;;;;11.02;5.47;;;;;;;7.68;66.21;100152.66;18434673;32;20105;-65
2022/04/19 18:25:13;;;;;;;14.15;7.28;;;;;;;7.35;67.47;100184.50;18447368;32;20124;-65
2022/04/19 18:35:17;;;;;;;25.25;10.55;;;;;;;7.22;67.39;100204.31;18433036;32;20368;-65
2022/04/19 18:45:21;;;;;;;16.62;10.02;;;;;;;7.67;64.75;100205.50;18448202;32;20123;-65
2022/04/19 18:55:25;;;;;;;11.88;6.05;;;;;;;6.42;69.20;100200.94;18446869;32;20409;-65
2022/04/19 19:05:28;;;;;;;14.32;7.53;;;;;;;6.53;68.84;100220.91;18421491;32;20484;-65
2022/04/19 19:15:33;;;;;;;21.05;9.93;;;;;;;6.75;66.84;100222.88;18417442;32;20100;-65
2022/04/19 19:25:37;;;;;;;17.25;8.95;;;;;;;6.38;68.46;100237.16;18420099;32;20217;-65
2022/04/19 19:35:42;;;;;;;14.55;8.32;;;;;;;6.20;69.09;100245.59;18432855;32;20107;-65
2022/04/19 19:45:45;;;;;;;13.35;6.10;;;;;;;6.07;69.25;100259.22;18434099;32;20130;-65
2022/04/19 19:55:50;;;;;;;14.40;7.53;;;;;;;5.21;70.07;100277.69;18433416;32;20685;-65
2022/04/19 20:05:54;;;;;;;11.52;6.32;;;;;;;5.53;68.90;100287.75;18433836;32;20068;-65
2022/04/19 20:15:59;;;;;;;10.52;5.87;;;;;;;5.18;69.85;100300.94;18416580;32;20148;-65
2022/04/19 20:26:02;;;;;;;11.27;5.90;;;;;;;5.35;68.53;100303.81;18414483;32;20096;-65
2022/04/19 20:36:07;;;;;;;14.00;6.20;;;;;;;5.18;68.15;100296.66;18415857;32;20120;-65
2022/04/19 20:46:10;;;;;;;13.98;6.65;;;;;;;4.78;70.73;100304.53;18432402;32;20111;-65
2022/04/19 20:56:15;;;;;;;12.25;7.25;;;;;;;4.67;70.25;100300.84;18418152;32;20116;-64
2022/04/19 21:06:18;;;;;;;11.15;6.25;;;;;;;4.38;71.24;100290.78;18415828;32;20101;-65
2022/04/19 21:16:22;;;;;;;14.23;7.07;;;;;;;4.62;71.18;100293.00;18416747;32;20142;-65
2022/04/19 21:26:26;;;;;;;10.30;6.25;;;;;;;4.46;71.56;100286.66;18416122;32;20180;-65
2022/04/19 21:36:30;;;;;;;11.95;6.18;;;;;;;4.93;70.90;100283.25;18415852;32;20138;-65
2022/04/19 21:46:33;;;;;;;8.77;5.12;;;;;;;4.72;71.50;100299.22;18430451;32;20108;-65
2022/04/19 21:56:38;;;;;;;10.27;4.97;;;;;;;4.78;70.81;100304.53;18429495;32;20097;-65
2022/04/19 22:06:41;;;;;;;10.85;5.28;;;;;;;5.09;70.34;100299.94;18429153;32;20146;-65
2022/04/19 22:16:46;;;;;;;8.70;5.03;;;;;;;4.79;70.64;100295.91;18428935;32;20121;-65
2022/04/19 22:26:49;;;;;;;14.07;6.03;;;;;;;4.82;71.36;100306.31;18413812;32;20101;-64
2022/04/19 22:36:53;;;;;;;14.27;6.10;;;;;;;4.29;69.90;100294.00;18431166;32;20099;-65
2022/04/19 22:46:56;;;;;;;11.27;5.93;;;;;;;4.25;69.77;100308.56;18436210;32;20510;-64
2022/04/19 22:57:01;;;;;;;9.88;4.72;;;;;;;4.20;69.08;100310.19;18435671;32;20374;-65
2022/04/19 23:07:05;;;;;;;9.82;4.85;;;;;;;3.44;69.71;100317.03;18436633;32;20155;-64
2022/04/19 23:17:09;;;;;;;12.65;4.70;;;;;;;3.51;70.02;100322.31;18435070;32;20120;-64
2022/04/19 23:37:34;;;;;;;11.02;5.70;;;;;;;3.31;70.00;100320.09;18435066;32;20089;-64
2022/04/19 23:47:37;;;;;;;14.63;6.93;;;;;;;3.13;70.84;100312.75;18433817;32;20111;-64
2022/04/19 23:57:42;;;;;;;9.18;5.50;;;;;;;3.07;71.93;100305.72;18415941;32;122793;-64
